My Meet Scores
Maura Anderson, St. Charles Gymnastics Academy - MyMeetScores.com
Top100 | Top Teams | Upcoming Meets | Completed Meets | Latest | Add Scores | Help| Support | Bookmark and Share

Maura Anderson, St. Charles Gymnastics Academy
Personal Bests
LevelVault BarsBeamFloorAA
49.1258.525 9.2009.42536.025
69.6759.350 9.6759.82538.175
AllLevels9.1008.450 8.7509.37535.675
Scores on America's Top 100as of 11.15.2018
Year Level Vault Bars Beam Floor AA
2017 69.825
Meet Scores
Date Meet Team Session Level Division Vault Bars Beam Floor AA
2018-02-23 Kinetic Classic St. Charles Gymnastics Academy 9 6 Older 9.675 2 9.350 12 9.525 5 9.625 3T 38.175 3
2018-02-16 Big Classic St. Charles Gymnastics Academy 1A 6 Junior D 9.500 1 9.075 2 9.675 1 9.650 1 37.900 1
2018-01-19 2018 SCEGA California Classic St. Charles Gymnastics Academy 1O 6 Junior B 9.425 4 9.175 3 9.525 2T 9.650 2 37.775 2
2018-01-12 St Jude Benefit Meet St. Charles Gymnastics Academy 4C 6 SrA 9.250 2 8.250 13 9.425 1 9.550 1 36.475 4
2017-12-14 2017 Women's Hawaiian Pineapple Classic St. Charles Gymnastics Academy 9A 6 Age12 9.150 6T 9.100 4 9.400 1 9.300 10 36.950 3
2017-11-17 SCGA Classic St. Charles Gymnastics Academy 3 6 Sr 9.275 2 9.175 2 9.200 2 9.825 1 37.475 1
2017-02-24 Kinetic Classic St. Charles Gymnastics Academy 9 6 All Ages 9.300 4T 9.200 19T 9.525 4T 9.500 4T 37.525 4
2017-02-10 IGI Chicago Style Gymnastics Meet St. Charles Gymnastics Academy 522W 6 SrA 9.000 13 8.950 14 9.525 4 9.450 4 36.925 10
2017-01-20 2017 Bravo Classic St. Charles Gymnastics Academy 02A 6 11yrs 8.800 11T 8.225 14 8.700 11 9.300 7T 35.025 14
2016-12-15 2016 Hawaiian Pineapple Sanction St. Charles Gymnastics Academy 2B 6 Age 11 9.075 10 8.700 9 9.100 10 9.625 1 36.500 5
2016-12-02 Ultimate Wish Classic St. Charles Gymnastics Academy 1 6 Junior 9.100 2T 8.150 12 9.175 3 9.250 3 35.675 6
2016-03-10 2016 Illinois Level 4 State Meet St. Charles Gymnastics Academy All 4 Jr-D 9.125 7 8.175 22 8.750 21 9.350 4 35.400 12
2016-02-05 St. Valentines Classic St. Charles Gymnastics Academy 1A AllLevels All Ages 9.100 6T 8.450 36 8.750 10T 9.375 1 35.675 8
2016-01-22 King Arthur Invitational St. Charles Gymnastics Academy S12 4 Sr.A 9.050 4 8.450 16 9.100 6 9.425 2 36.025 5
2016-01-08 St Jude Benefit Meet St. Charles Gymnastics Academy 4A 4 Sr A 9.125 8 8.325 18T 9.100 13T 9.250 4 35.800 10
2015-12-17 2015 Hawaiian Pineapple Classic St. Charles Gymnastics Academy 1A 4 Age 10 8.500 15T 8.525 18T 9.200 6 9.075 7 35.300 13
2015-12-04 2015 Ultimate Wish Classic St. Charles Gymnastics Academy 7 4 All 9.100 8 8.450 40 9.000 17 9.350 9 35.900 17
2015-03-19 2015 Illinois Level 4 State Championship St. Charles Gymnastics Academy All 4 YouthC 8.750 22 7.750 29 8.700 24 9.025 19 34.225 24
2015-02-20 Midwest Open 2015 St. Charles Gymnastics Academy 8A 4 9 8.500 15 7.650 18 8.000 17 8.625 14 32.775 17
2015-01-23 King Arthur Invitational St. Charles Gymnastics Academy 10A 4 JrB 8.825 4 7.900 15 7.850 15 9.000 9 33.575 12

www.lazysuits.com